Airfield :
LOGIN :

Register | Disclaimer

   EN    FR    IT 

 










Legend :    VFR   Marginal VFR   IFR   Intensive IFR   Very Intensive IFR
Visi :
Ceiling :
>= 8 km
>= 3000ft
5 to 8 km
1000 to 3000 ft
1500m to 5 km
500 to 1000 ft
800 to 1500m
200 to 500 ft
< 800m
< 200 ft
Symbols :   Thunderstorms  Fog  Heavy snow  Heavy precipitations  Wind > 20 kt
SIGMETs :     Misc.  Thunderstorms  Icing  Turbulence  Mountain Waves  Volcanic Ashes






- Airport Elevation : 1106 ft


LFSO - Nancy / Ochey

CURRENT METAR :
  • 170300Z AUTO 10004KT 0400 0250 R20/0300N FG BKN003 OVC007 02/02 Q1019

EXPIRED METARs :
  • 170230Z AUTO 13004KT 090V150 0500 0350 R20/0400U FG VV/// 03/03 Q1019
  • 170200Z AUTO 17003KT 0750 0500 R20/0375D FG VV/// 03/03 Q1020
  • 170130Z AUTO 19004KT 6000 FEW002 04/04 Q1020
  • 170100Z AUTO 18004KT 7000 FEW003 04/04 Q1020
  • 170030Z AUTO 19004KT 9000 NSC 04/04 Q1020

Expired Forecast.



MET'MAP, your aeronautical weather chart ! - Copyright ORBIFLY December 2007 - Disclaimer

ORBIFLY MET'MAP TEAM :

Programming & Development : Alexandra Zaïnal
Concept & original design : Baudouin d'Aumeries
Assistance for programming : Marc-Olivier Méhu
Technical & hardware support : Manuel Goepfert

Contact : metmap@orbifly.com




SOURCES & CREDITS :

   NOAA